createdAt,value
2022-11-01T00:02:00.998Z,97094.13
2022-11-01T00:04:29.535Z,97100.53
2022-11-01T00:06:57.641Z,97088.53
2022-11-01T00:09:25.672Z,97106.59
2022-11-01T00:11:54.048Z,97091.09
2022-11-01T00:14:22.356Z,97097.16
2022-11-01T00:16:51.742Z,97096.81
2022-11-01T00:19:19.950Z,97102.03
2022-11-01T00:21:48.402Z,97088.41
2022-11-01T00:24:16.374Z,97092.75
2022-11-01T00:26:44.493Z,97075.56
2022-11-01T00:29:12.907Z,97083.13
2022-11-01T00:31:41.479Z,97071.81
2022-11-01T00:34:10.888Z,97076.75
2022-11-01T00:36:38.920Z,97081.44
2022-11-01T00:39:07.771Z,97078.78
2022-11-01T00:41:35.876Z,97051.75
2022-11-01T00:44:04.069Z,97055.81
2022-11-01T00:46:32.104Z,97066.59
2022-11-01T00:49:00.117Z,97058.03
2022-11-01T00:51:29.564Z,97063.16
2022-11-01T00:53:57.507Z,97052.34
2022-11-01T00:56:25.899Z,97064.50
2022-11-01T00:58:53.852Z,97065.44
2022-11-01T01:01:21.921Z,97050.97
2022-11-01T01:03:50.366Z,97045.75
2022-11-01T01:06:18.407Z,97048.94
2022-11-01T01:08:47.824Z,97048.00
2022-11-01T01:11:15.910Z,97062.28
2022-11-01T01:13:43.979Z,97058.94
2022-11-01T01:16:12.828Z,97061.78
2022-11-01T01:18:40.870Z,97075.00
2022-11-01T01:21:09.378Z,97071.25
2022-11-01T01:23:37.407Z,97075.00
2022-11-01T01:26:08.415Z,97093.22
2022-11-01T01:28:41.747Z,97091.72
2022-11-01T01:31:13.866Z,97095.56
2022-11-01T01:33:42.185Z,97087.84
2022-11-01T01:36:10.787Z,97086.16
2022-11-01T01:38:38.757Z,97095.25
2022-11-01T01:41:25.729Z,97087.38
2022-11-01T01:43:54.129Z,97071.66
2022-11-01T01:46:22.089Z,97059.03
2022-11-01T01:48:51.655Z,97057.34
2022-11-01T01:51:21.055Z,97072.03
2022-11-01T01:53:50.605Z,97069.13
2022-11-01T01:56:21.255Z,97064.44
2022-11-01T01:58:51.395Z,97063.09
2022-11-01T02:01:19.858Z,97056.50
2022-11-01T02:03:48.050Z,97054.50
2022-11-01T02:06:17.066Z,97047.09
2022-11-01T02:08:48.324Z,97047.56
2022-11-01T02:11:16.694Z,97032.44
2022-11-01T02:13:46.650Z,97037.97
2022-11-01T02:16:28.899Z,97041.88
2022-11-01T02:19:03.301Z,97042.88
2022-11-01T02:21:48.017Z,97042.03
2022-11-01T02:24:57.628Z,97033.63
2022-11-01T02:27:29.013Z,97030.09
2022-11-01T02:30:17.142Z,97035.81
2022-11-01T02:33:10.197Z,97031.09
2022-11-01T02:35:43.406Z,97049.97
2022-11-01T02:38:13.722Z,97043.41
2022-11-01T02:40:44.417Z,97051.13
2022-11-01T02:43:16.031Z,97050.28
2022-11-01T02:45:45.646Z,97054.16
2022-11-01T02:48:15.191Z,97055.84
2022-11-01T02:50:45.440Z,97059.88
2022-11-01T02:53:13.861Z,97053.66
2022-11-01T02:55:41.973Z,97051.63
2022-11-01T02:58:14.764Z,97051.28
2022-11-01T03:00:43.559Z,97054.47
2022-11-01T03:03:16.463Z,97044.38
2022-11-01T03:05:55.583Z,97045.38
2022-11-01T03:08:24.431Z,97049.41
2022-11-01T03:10:54.625Z,97045.56
2022-11-01T03:13:29.866Z,97054.19
2022-11-01T03:16:01.946Z,97049.59
2022-11-01T03:18:34.084Z,97064.94
2022-11-01T03:21:15.527Z,97061.91
2022-11-01T03:23:46.728Z,97060.59
2022-11-01T03:26:14.938Z,97058.19
2022-11-01T03:28:43.442Z,97063.06
2022-11-01T03:31:13.158Z,97057.03
2022-11-01T03:33:45.922Z,97062.94
2022-11-01T03:36:15.720Z,97059.22
2022-11-01T03:38:45.151Z,97068.50
2022-11-01T03:41:15.199Z,97068.66
2022-11-01T03:43:43.478Z,97071.66
2022-11-01T03:46:11.432Z,97073.38
2022-11-01T03:48:40.573Z,97063.59
2022-11-01T03:51:10.057Z,97065.28
2022-11-01T03:53:38.059Z,97077.44
2022-11-01T03:56:06.905Z,97080.09
2022-11-01T03:58:44.083Z,97078.44
2022-11-01T04:01:12.627Z,97084.16
2022-11-01T04:03:40.665Z,97086.34
2022-11-01T04:06:10.200Z,97092.91
2022-11-01T04:08:38.135Z,97098.13
2022-11-01T04:11:06.201Z,97085.16
2022-11-01T04:13:34.189Z,97095.63
2022-11-01T04:16:19.928Z,97100.81
2022-11-01T04:19:05.481Z,97104.72
2022-11-01T04:21:34.862Z,97106.41
2022-11-01T04:24:02.885Z,97117.00
2022-11-01T04:26:30.947Z,97113.13
2022-11-01T04:28:58.920Z,97119.72
2022-11-01T04:31:28.110Z,97108.94
2022-11-01T04:33:56.086Z,97120.72
2022-11-01T04:36:24.167Z,97124.06
2022-11-01T04:38:56.686Z,97125.59
2022-11-01T04:41:25.033Z,97136.06
2022-11-01T04:43:54.268Z,97136.06
2022-11-01T04:46:22.277Z,97138.75
2022-11-01T04:48:50.281Z,97123.44
2022-11-01T04:51:18.497Z,97122.06
2022-11-01T04:53:46.479Z,97125.44
2022-11-01T04:56:15.864Z,97133.38
2022-11-01T04:58:46.437Z,97141.63
2022-11-01T05:01:15.511Z,97130.84
2022-11-01T05:03:43.790Z,97144.16
2022-11-01T05:06:11.774Z,97145.31
2022-11-01T05:08:40.220Z,97151.72
2022-11-01T05:11:08.202Z,97151.91
2022-11-01T05:13:37.637Z,97147.84
2022-11-01T05:16:18.789Z,97151.56
2022-11-01T05:18:47.588Z,97151.56
2022-11-01T05:21:15.523Z,97157.97
2022-11-01T05:23:44.041Z,97157.31
2022-11-01T05:26:12.477Z,97154.63
2022-11-01T05:28:41.867Z,97157.63
2022-11-01T05:31:09.937Z,97165.03
2022-11-01T05:33:37.944Z,97162.19
2022-11-01T05:36:06.472Z,97159.50
2022-11-01T05:38:34.445Z,97165.41
2022-11-01T05:41:03.780Z,97162.03
2022-11-01T05:43:31.782Z,97164.72
2022-11-01T05:46:04.747Z,97176.88
2022-11-01T05:48:33.184Z,97179.22
2022-11-01T05:51:01.229Z,97187.81
2022-11-01T05:53:29.310Z,97179.88
2022-11-01T05:55:57.630Z,97194.06
2022-11-01T05:58:29.566Z,97193.06
2022-11-01T06:01:00.571Z,97198.63
2022-11-01T06:03:28.700Z,97193.22
2022-11-01T06:05:58.667Z,97199.09
2022-11-01T06:08:26.800Z,97193.88
2022-11-01T06:10:58.160Z,97213.28
2022-11-01T06:13:29.577Z,97208.19
2022-11-01T06:16:00.977Z,97222.03
2022-11-01T06:18:29.208Z,97222.38
2022-11-01T06:20:57.904Z,97222.72
2022-11-01T06:23:26.140Z,97220.69
2022-11-01T06:26:01.196Z,97223.22
2022-11-01T06:28:29.480Z,97232.00
2022-11-01T06:30:57.742Z,97245.47
2022-11-01T06:33:27.399Z,97247.50
2022-11-01T06:35:55.633Z,97257.81
2022-11-01T06:38:25.614Z,97252.56
2022-11-01T06:40:54.194Z,97255.44
2022-11-01T06:43:22.659Z,97255.94
2022-11-01T06:45:54.452Z,97258.97
2022-11-01T06:48:22.844Z,97279.03
2022-11-01T06:50:54.186Z,97277.66
2022-11-01T06:53:27.962Z,97284.41
2022-11-01T06:55:56.527Z,97296.91
2022-11-01T06:58:24.758Z,97288.47
2022-11-01T07:00:53.149Z,97291.88
2022-11-01T07:03:21.583Z,97299.59
2022-11-01T07:05:56.359Z,97308.56
2022-11-01T07:08:31.246Z,97314.31
2022-11-01T07:11:00.740Z,97318.50
2022-11-01T07:13:36.875Z,97330.84
2022-11-01T07:16:08.313Z,97333.84
2022-11-01T07:18:36.573Z,97342.13
2022-11-01T07:21:05.291Z,97341.47
2022-11-01T07:23:38.025Z,97360.78
2022-11-01T07:26:08.958Z,97350.53
2022-11-01T07:28:40.151Z,97364.16
2022-11-01T07:31:08.710Z,97356.75
2022-11-01T07:33:46.081Z,97354.72
2022-11-01T07:36:17.280Z,97364.63
2022-11-01T07:38:57.573Z,97370.03
2022-11-01T07:41:26.224Z,97376.09
2022-11-01T07:43:54.764Z,97379.91
2022-11-01T07:46:25.908Z,97380.56
2022-11-01T07:48:54.809Z,97390.47
2022-11-01T07:51:23.502Z,97383.81
2022-11-01T07:53:53.468Z,97392.88
2022-11-01T07:56:26.006Z,97398.06
2022-11-01T07:58:56.349Z,97398.41
2022-11-01T08:01:24.745Z,97402.91
2022-11-01T08:03:59.570Z,97401.56
2022-11-01T08:06:35.240Z,97411.16
2022-11-01T08:09:11.761Z,97409.03
2022-11-01T08:11:42.953Z,97412.34
2022-11-01T08:14:12.350Z,97411.59
2022-11-01T08:16:45.036Z,97422.28
2022-11-01T08:19:17.207Z,97441.00
2022-11-01T08:21:51.567Z,97432.66
2022-11-01T08:24:25.716Z,97444.13
2022-11-01T08:26:53.976Z,97445.81
2022-11-01T08:29:22.561Z,97451.75
2022-11-01T08:31:52.693Z,97457.59
2022-11-01T08:34:21.046Z,97460.06
2022-11-01T08:36:49.430Z,97456.44
2022-11-01T08:39:17.975Z,97461.91
2022-11-01T08:41:51.231Z,97462.22
2022-11-01T08:44:20.203Z,97470.06
2022-11-01T08:46:48.716Z,97476.59
2022-11-01T08:49:22.254Z,97479.97
2022-11-01T08:51:50.491Z,97487.28
2022-11-01T08:54:18.738Z,97486.00
2022-11-01T08:56:47.061Z,97490.47
2022-11-01T08:59:16.677Z,97498.53
2022-11-01T09:01:52.911Z,97494.66
2022-11-01T09:04:22.658Z,97495.16
2022-11-01T09:07:08.819Z,97497.22
2022-11-01T09:09:46.294Z,97499.91
2022-11-01T09:12:18.402Z,97497.34
2022-11-01T09:14:53.436Z,97496.00
2022-11-01T09:17:23.229Z,97486.28
2022-11-01T09:19:52.352Z,97500.06
2022-11-01T09:22:23.830Z,97509.06
2022-11-01T09:24:52.151Z,97510.28
2022-11-01T09:27:20.481Z,97512.44
2022-11-01T09:29:51.963Z,97507.84
2022-11-01T09:32:25.649Z,97511.53
2022-11-01T09:34:55.655Z,97510.31
2022-11-01T09:37:27.141Z,97507.53
2022-11-01T09:39:58.167Z,97514.63
2022-11-01T09:42:39.042Z,97518.69
2022-11-01T09:45:16.194Z,97524.78
2022-11-01T09:47:53.367Z,97525.25
2022-11-01T09:50:25.783Z,97523.69
2022-11-01T09:52:55.592Z,97520.25
2022-11-01T09:55:37.132Z,97518.78
2022-11-01T09:58:08.573Z,97518.25
2022-11-01T10:00:47.414Z,97524.66
2022-11-01T10:03:24.125Z,97524.13
2022-11-01T10:05:58.817Z,97512.06
2022-11-01T10:08:40.658Z,97524.63
2022-11-01T10:11:17.620Z,97521.59
2022-11-01T10:13:51.558Z,97526.78
2022-11-01T10:16:25.439Z,97523.69
2022-11-01T10:19:07.678Z,97530.03
2022-11-01T10:21:43.041Z,97528.03
2022-11-01T10:24:26.372Z,97527.03
2022-11-01T10:26:58.974Z,97536.72
2022-11-01T10:29:30.239Z,97518.44
2022-11-01T10:31:59.061Z,97524.75
2022-11-01T10:34:34.967Z,97523.59
2022-11-01T10:37:15.809Z,97520.59
2022-11-01T10:39:58.945Z,97519.03
2022-11-01T10:42:38.761Z,97522.91
2022-11-01T10:45:21.860Z,97522.63
2022-11-01T10:47:56.365Z,97523.13
2022-11-01T10:50:34.338Z,97520.25
2022-11-01T10:53:04.169Z,97521.09
2022-11-01T10:55:36.922Z,97516.03
2022-11-01T10:58:06.474Z,97514.06
2022-11-01T11:00:42.322Z,97511.03
2022-11-01T11:03:17.242Z,97506.03
2022-11-01T11:05:48.384Z,97519.16
2022-11-01T11:08:17.649Z,97525.34
2022-11-01T11:10:58.381Z,97524.16
2022-11-01T11:13:27.460Z,97524.47
2022-11-01T11:16:00.763Z,97523.03
2022-11-01T11:18:32.061Z,97518.16
2022-11-01T11:21:06.828Z,97518.69
2022-11-01T11:23:36.391Z,97523.03
2022-11-01T11:26:06.277Z,97517.47
2022-11-01T11:28:43.814Z,97519.53
2022-11-01T11:31:15.203Z,97516.97
2022-11-01T11:33:49.994Z,97513.31
2022-11-01T11:36:26.247Z,97517.00
2022-11-01T11:39:22.870Z,97511.44
2022-11-01T11:41:55.490Z,97512.84
2022-11-01T11:44:45.807Z,97522.94
2022-11-01T11:47:24.897Z,97516.56
2022-11-01T11:49:58.552Z,97518.28
2022-11-01T11:52:53.593Z,97504.09
2022-11-01T11:55:30.038Z,97513.72
2022-11-01T11:58:05.683Z,97511.19
2022-11-01T12:00:41.139Z,97509.31
2022-11-01T12:03:15.968Z,97518.13
2022-11-01T12:06:00.092Z,97510.38
2022-11-01T12:08:44.630Z,97523.03
2022-11-01T12:11:14.707Z,97534.50
2022-11-01T12:13:44.632Z,97529.28
2022-11-01T12:18:59.026Z,97526.94
2022-11-01T12:21:30.719Z,97532.50
2022-11-01T12:24:03.048Z,97527.94
2022-11-01T12:26:33.101Z,97525.78
2022-11-01T12:29:06.360Z,97519.00
2022-11-01T12:31:34.967Z,97527.25
2022-11-01T12:34:06.698Z,97525.91
2022-11-01T12:36:37.575Z,97527.53
2022-11-01T12:39:18.916Z,97530.63
2022-11-01T12:42:08.194Z,97530.25
2022-11-01T12:44:37.581Z,97545.31
2022-11-01T12:47:16.370Z,97530.66
2022-11-01T12:49:48.428Z,97528.59
2022-11-01T12:52:21.384Z,97521.03
2022-11-01T12:54:58.733Z,97522.00
2022-11-01T12:57:26.974Z,97517.78
2022-11-01T12:59:55.461Z,97522.88
2022-11-01T13:02:31.147Z,97525.03
2022-11-01T13:05:01.478Z,97523.41
2022-11-01T13:07:37.810Z,97527.09
2022-11-01T13:10:18.935Z,97529.94
2022-11-01T13:12:54.265Z,97531.13
2022-11-01T13:15:28.242Z,97525.25
2022-11-01T13:18:03.838Z,97526.75
2022-11-01T13:20:37.589Z,97528.78
2022-11-01T13:23:15.314Z,97532.97
2022-11-01T13:25:51.853Z,97526.09
2022-11-01T13:28:32.336Z,97527.41
2022-11-01T13:31:08.676Z,97527.13
2022-11-01T13:33:42.030Z,97524.22
2022-11-01T13:36:15.129Z,97523.59
2022-11-01T13:38:47.374Z,97524.69
2022-11-01T13:41:21.122Z,97531.09
2022-11-01T13:43:51.264Z,97518.97
2022-11-01T13:46:32.344Z,97533.34
2022-11-01T13:49:14.044Z,97510.31
2022-11-01T13:51:43.206Z,97523.69
2022-11-01T13:54:20.273Z,97516.75
2022-11-01T13:56:58.037Z,97523.72
2022-11-01T13:59:33.554Z,97530.50
2022-11-01T14:02:36.147Z,97520.63
2022-11-01T14:05:07.278Z,97523.47
2022-11-01T14:07:40.300Z,97521.94
2022-11-01T14:10:12.855Z,97521.09
2022-11-01T14:13:00.539Z,97527.53
2022-11-01T14:15:39.544Z,97529.53
2022-11-01T14:18:11.879Z,97521.56
2022-11-01T14:20:56.202Z,97519.75
2022-11-01T14:23:54.171Z,97519.72
2022-11-01T14:26:36.197Z,97516.41
2022-11-01T14:29:20.280Z,97519.50
2022-11-01T14:31:55.584Z,97518.22
2022-11-01T14:34:30.329Z,97515.97
2022-11-01T14:37:00.478Z,97518.66
2022-11-01T14:39:33.584Z,97527.13
2022-11-01T14:42:05.064Z,97521.53
2022-11-01T14:44:36.818Z,97521.91
2022-11-01T14:47:08.087Z,97531.66
2022-11-01T14:49:43.497Z,97527.09
2022-11-01T14:52:15.060Z,97527.25
2022-11-01T14:54:56.889Z,97527.75
2022-11-01T14:57:49.353Z,97525.53
2022-11-01T15:00:28.741Z,97534.97
2022-11-01T15:05:31.489Z,97542.22
2022-11-01T15:08:00.764Z,97553.25
2022-11-01T15:10:42.755Z,97541.16
2022-11-01T15:13:11.238Z,97537.06
2022-11-01T15:15:40.874Z,97546.31
2022-11-01T15:18:17.158Z,97549.72
2022-11-01T15:20:59.020Z,97556.25
2022-11-01T15:23:36.813Z,97552.09
2022-11-01T15:26:07.978Z,97551.72
2022-11-01T15:28:41.396Z,97554.25
2022-11-01T15:31:15.486Z,97550.06
2022-11-01T15:34:13.070Z,97544.94
2022-11-01T15:36:46.566Z,97547.97
2022-11-01T15:39:25.667Z,97552.50
2022-11-01T15:42:00.580Z,97545.41
2022-11-01T15:44:35.129Z,97554.03
2022-11-01T15:47:06.807Z,97553.47
2022-11-01T15:49:38.281Z,97558.09
2022-11-01T15:52:08.542Z,97556.09
2022-11-01T15:54:42.946Z,97551.19
2022-11-01T15:57:21.249Z,97558.44
2022-11-01T16:00:01.755Z,97555.75
2022-11-01T16:02:35.736Z,97551.47
2022-11-01T16:05:21.624Z,97567.06
2022-11-01T16:07:50.030Z,97563.81
2022-11-01T16:10:20.318Z,97563.22
2022-11-01T16:12:49.108Z,97566.84
2022-11-01T16:15:21.445Z,97565.00
2022-11-01T16:17:52.344Z,97560.94
2022-11-01T16:20:34.152Z,97565.94
2022-11-01T16:23:02.979Z,97562.06
2022-11-01T16:25:33.021Z,97561.75
2022-11-01T16:28:03.973Z,97567.59
2022-11-01T16:30:36.767Z,97562.78
2022-11-01T16:35:57.277Z,97565.97
2022-11-01T16:38:29.051Z,97568.41
2022-11-01T16:40:58.596Z,97580.44
2022-11-01T16:43:27.558Z,97582.28
2022-11-01T16:45:56.263Z,97577.34
2022-11-01T16:48:27.367Z,97585.97
2022-11-01T16:50:56.284Z,97585.56
2022-11-01T16:53:25.661Z,97588.13
2022-11-01T16:56:01.370Z,97593.75
2022-11-01T16:58:33.990Z,97598.88
2022-11-01T17:01:02.272Z,97599.88
2022-11-01T17:03:32.466Z,97590.81
2022-11-01T17:06:00.712Z,97593.63
2022-11-01T17:08:32.199Z,97604.69
2022-11-01T17:11:00.442Z,97603.41
2022-11-01T17:13:28.714Z,97609.19
2022-11-01T17:15:57.021Z,97618.56
2022-11-01T17:18:28.034Z,97618.41
2022-11-01T17:20:57.790Z,97625.06
2022-11-01T17:23:26.480Z,97621.97
2022-11-01T17:25:54.880Z,97623.50
2022-11-01T17:28:24.624Z,97628.19
2022-11-01T17:30:56.673Z,97611.34
2022-11-01T17:33:26.659Z,97621.13
2022-11-01T17:35:55.059Z,97624.06
2022-11-01T17:38:30.104Z,97624.19
2022-11-01T17:40:58.879Z,97627.59
2022-11-01T17:43:27.711Z,97626.19
2022-11-01T17:45:56.086Z,97633.69
2022-11-01T17:48:24.397Z,97637.78
2022-11-01T17:50:52.903Z,97634.53
2022-11-01T17:53:21.146Z,97632.56
2022-11-01T17:55:57.055Z,97639.31
2022-11-01T17:58:25.461Z,97641.28
2022-11-01T18:00:54.113Z,97641.59
2022-11-01T18:03:22.373Z,97654.03
2022-11-01T18:05:50.645Z,97656.84
2022-11-01T18:08:19.729Z,97644.78
2022-11-01T18:10:54.757Z,97641.41
2022-11-01T18:13:32.991Z,97645.38
2022-11-01T18:16:04.882Z,97641.41
2022-11-01T18:18:46.674Z,97645.75
2022-11-01T18:21:19.830Z,97640.66
2022-11-01T18:23:48.478Z,97641.63
2022-11-01T18:26:21.299Z,97636.38
2022-11-01T18:28:49.581Z,97641.25
2022-11-01T18:31:19.583Z,97637.69
2022-11-01T18:33:50.974Z,97636.09
2022-11-01T18:36:21.545Z,97631.84
2022-11-01T18:38:54.296Z,97637.50
2022-11-01T18:41:23.902Z,97633.78
2022-11-01T18:43:53.437Z,97630.97
2022-11-01T18:46:25.848Z,97638.03
2022-11-01T18:48:59.931Z,97639.41
2022-11-01T18:51:29.692Z,97639.53
2022-11-01T18:53:59.830Z,97637.00
2022-11-01T18:56:30.497Z,97640.97
2022-11-01T18:59:00.586Z,97639.66
2022-11-01T19:01:31.971Z,97640.22
2022-11-01T19:04:02.143Z,97643.03
2022-11-01T19:06:30.382Z,97645.97
2022-11-01T19:09:00.004Z,97638.78
2022-11-01T19:11:30.027Z,97646.25
2022-11-01T19:13:59.414Z,97639.38
2022-11-01T19:16:28.266Z,97646.53
2022-11-01T19:18:56.652Z,97638.88
2022-11-01T19:21:25.429Z,97643.28
2022-11-01T19:23:54.770Z,97641.28
2022-11-01T19:26:25.950Z,97641.88
2022-11-01T19:28:55.627Z,97644.09
2022-11-01T19:31:27.288Z,97644.91
2022-11-01T19:33:57.579Z,97648.91
2022-11-01T19:36:26.823Z,97642.13
2022-11-01T19:38:55.161Z,97637.88
2022-11-01T19:41:26.648Z,97636.84
2022-11-01T19:43:57.195Z,97637.56
2022-11-01T19:46:25.490Z,97634.84
2022-11-01T19:48:54.195Z,97634.84
2022-11-01T19:51:24.431Z,97631.72
2022-11-01T19:53:53.495Z,97642.31
2022-11-01T19:56:23.282Z,97637.66
2022-11-01T19:58:52.144Z,97637.66
2022-11-01T20:01:46.627Z,97641.47
2022-11-01T20:04:26.054Z,97638.78
2022-11-01T20:06:57.712Z,97644.72
2022-11-01T20:09:27.234Z,97639.75
2022-11-01T20:11:56.213Z,97642.25
2022-11-01T20:14:24.540Z,97631.53
2022-11-01T20:16:54.503Z,97639.03
2022-11-01T20:19:23.433Z,97631.44
2022-11-01T20:21:51.688Z,97639.28
2022-11-01T20:24:19.931Z,97634.53
2022-11-01T20:26:48.266Z,97653.69
2022-11-01T20:29:16.493Z,97646.09
2022-11-01T20:31:44.709Z,97653.09
2022-11-01T20:34:14.343Z,97649.44
2022-11-01T20:36:44.628Z,97637.34
2022-11-01T20:39:18.064Z,97637.47
2022-11-01T20:41:47.337Z,97645.13
2022-11-01T20:44:15.566Z,97649.75
2022-11-01T20:46:43.863Z,97647.50
2022-11-01T20:49:13.570Z,97650.03
2022-11-01T20:51:42.125Z,97648.91
2022-11-01T20:54:15.211Z,97652.25
2022-11-01T20:56:45.855Z,97651.53
2022-11-01T20:59:15.898Z,97649.44
2022-11-01T21:01:47.089Z,97656.44
2022-11-01T21:04:17.167Z,97653.09
2022-11-01T21:07:04.430Z,97663.03
2022-11-01T21:09:51.219Z,97654.06
2022-11-01T21:12:26.445Z,97663.09
2022-11-01T21:14:55.515Z,97666.97
2022-11-01T21:17:23.729Z,97663.94
2022-11-01T21:19:54.862Z,97663.69
2022-11-01T21:22:23.317Z,97661.34
2022-11-01T21:24:51.554Z,97659.56
2022-11-01T21:27:24.993Z,97661.34
2022-11-01T21:29:53.262Z,97659.97
2022-11-01T21:32:25.165Z,97666.56
2022-11-01T21:34:55.087Z,97657.22
2022-11-01T21:37:23.550Z,97673.50
2022-11-01T21:39:57.874Z,97671.53
2022-11-01T21:42:32.199Z,97670.69
2022-11-01T21:45:00.502Z,97669.59
2022-11-01T21:47:29.411Z,97664.59
2022-11-01T21:49:59.020Z,97662.66
2022-11-01T21:52:27.572Z,97670.88
2022-11-01T21:54:55.812Z,97672.38
2022-11-01T21:57:24.008Z,97667.41
2022-11-01T21:59:52.220Z,97665.19
2022-11-01T22:02:20.815Z,97669.97
2022-11-01T22:04:49.128Z,97666.75
2022-11-01T22:07:18.741Z,97657.72
2022-11-01T22:09:47.248Z,97646.78
2022-11-01T22:12:15.485Z,97650.03
2022-11-01T22:14:43.719Z,97658.72
2022-11-01T22:17:12.260Z,97653.22
2022-11-01T22:19:40.481Z,97646.78
2022-11-01T22:22:08.735Z,97648.22
2022-11-01T22:24:38.342Z,97641.53
2022-11-01T22:27:07.068Z,97643.97
2022-11-01T22:29:35.754Z,97643.91
2022-11-01T22:32:04.683Z,97633.56
2022-11-01T22:34:32.920Z,97637.63
2022-11-01T22:37:01.216Z,97620.16
2022-11-01T22:39:29.441Z,97628.25
2022-11-01T22:41:59.358Z,97635.88
2022-11-01T22:44:28.208Z,97622.84
2022-11-01T22:46:58.910Z,97625.94
2022-11-01T22:49:28.346Z,97623.94
2022-11-01T22:51:57.318Z,97626.63
2022-11-01T22:54:31.257Z,97624.09
2022-11-01T22:57:02.957Z,97624.78
2022-11-01T22:59:33.413Z,97617.34
2022-11-01T23:02:07.397Z,97610.41
2022-11-01T23:04:38.423Z,97605.03
2022-11-01T23:07:16.079Z,97610.09
2022-11-01T23:09:45.335Z,97619.50
2022-11-01T23:12:34.440Z,97608.41
2022-11-01T23:15:02.676Z,97610.41
2022-11-01T23:17:34.053Z,97603.34
2022-11-01T23:20:03.723Z,97587.25
2022-11-01T23:22:33.279Z,97593.91
2022-11-01T23:25:01.588Z,97598.22
2022-11-01T23:27:33.773Z,97591.69
2022-11-01T23:30:02.814Z,97585.22
2022-11-01T23:32:31.202Z,97599.91
2022-11-01T23:35:07.919Z,97583.09
2022-11-01T23:37:36.169Z,97581.97
2022-11-01T23:40:06.160Z,97582.31
2022-11-01T23:42:35.745Z,97574.28
2022-11-01T23:45:06.605Z,97572.88
2022-11-01T23:47:36.681Z,97567.81
2022-11-01T23:50:06.030Z,97560.91
2022-11-01T23:52:39.780Z,97574.91
2022-11-01T23:55:13.768Z,97569.38
2022-11-01T23:57:43.737Z,97561.03
